Time,TemperatureF,DewpointF,PressureIn,WindDirection,WindDirectionDegrees,WindSpeedMPH,WindSpeedGustMPH,Humidity,HourlyPrecipIn,Conditions,Clouds,dailyrainin,SolarRadiationWatts/m^2,SoftwareType,DateUTC
2013-02-20 00:01:00,30.0,27.0,-100.00,SW,234,4.0,7.0,90,0.00,,,0.00,1.000000,,2013-02-20 07:01:00,
2013-02-20 00:11:00,30.0,27.0,-100.00,SW,234,4.0,7.0,90,0.00,,,0.00,1.000000,,2013-02-20 07:11:00,
2013-02-20 01:42:00,29.0,27.0,-100.00,SW,232,1.0,8.0,93,-99.99,,,0.01,1.000000,,2013-02-20 08:42:00,
2013-02-20 01:52:00,29.0,27.0,-100.00,SW,232,1.0,8.0,93,-99.99,,,0.01,1.000000,,2013-02-20 08:52:00,
2013-02-20 02:01:00,29.0,27.0,-100.00,SW,232,1.0,8.0,93,-99.99,,,0.01,1.000000,,2013-02-20 09:01:00,
2013-02-20 02:11:00,29.0,27.0,-100.00,SW,232,1.0,8.0,93,-99.99,,,0.01,1.000000,,2013-02-20 09:11:00,
2013-02-20 02:32:00,29.0,28.0,-100.00,NNW,333,0.0,2.0,95,0.03,,,0.04,1.000000,,2013-02-20 09:32:00,
2013-02-20 02:42:00,29.0,28.0,-100.00,NNW,333,0.0,2.0,95,0.03,,,0.04,1.000000,,2013-02-20 09:42:00,
2013-02-20 02:52:00,29.0,28.0,-100.00,NNW,333,0.0,2.0,95,0.03,,,0.04,1.000000,,2013-02-20 09:52:00,
2013-02-20 03:01:00,29.0,28.0,-100.00,NNW,333,0.0,2.0,95,0.03,,,0.04,1.000000,,2013-02-20 10:01:00,
2013-02-20 03:12:00,29.0,28.0,-100.00,NNW,333,0.0,2.0,95,0.03,,,0.04,1.000000,,2013-02-20 10:12:00,
2013-02-20 03:32:00,29.0,28.0,-100.00,NNE,15,0.0,1.0,95,0.04,,,0.08,1.000000,,2013-02-20 10:32:00,
2013-02-20 03:42:00,29.0,28.0,-100.00,NNE,15,0.0,1.0,95,0.04,,,0.08,1.000000,,2013-02-20 10:42:00,
2013-02-20 03:52:00,29.0,28.0,-100.00,NNE,15,0.0,1.0,95,0.04,,,0.08,1.000000,,2013-02-20 10:52:00,
2013-02-20 04:02:00,29.0,28.0,-100.00,NNE,15,0.0,1.0,95,0.04,,,0.08,1.000000,,2013-02-20 11:02:00,
2013-02-20 04:11:00,29.0,28.0,-100.00,NNE,15,0.0,1.0,95,0.04,,,0.08,1.000000,,2013-02-20 11:11:00,
2013-02-20 04:42:00,29.0,28.0,-100.00,North,0,0.0,0.0,95,0.01,,,0.09,1.000000,,2013-02-20 11:42:00,
2013-02-20 04:52:00,29.0,28.0,-100.00,North,0,0.0,0.0,95,0.01,,,0.09,1.000000,,2013-02-20 11:52:00,
2013-02-20 05:01:00,29.0,28.0,-100.00,North,0,0.0,0.0,95,0.01,,,0.09,1.000000,,2013-02-20 12:01:00,
2013-02-20 05:11:00,29.0,28.0,-100.00,North,0,0.0,0.0,95,0.01,,,0.09,1.000000,,2013-02-20 12:11:00,
2013-02-20 05:32:00,29.0,28.0,-100.00,North,353,1.0,2.0,95,0.00,,,0.09,1.000000,,2013-02-20 12:32:00,
2013-02-20 05:42:00,29.0,28.0,-100.00,North,353,1.0,2.0,95,0.00,,,0.09,1.000000,,2013-02-20 12:42:00,
2013-02-20 05:53:00,29.0,28.0,-100.00,North,353,1.0,2.0,95,0.00,,,0.09,1.000000,,2013-02-20 12:53:00,
2013-02-20 06:01:00,29.0,28.0,-100.00,North,353,1.0,2.0,95,0.00,,,0.09,1.000000,,2013-02-20 13:01:00,
2013-02-20 06:11:00,29.0,28.0,-100.00,North,353,1.0,2.0,95,0.00,,,0.09,1.000000,,2013-02-20 13:11:00,
2013-02-20 07:42:00,28.0,26.0,-100.00,SW,225,2.0,6.0,91,-99.99,,,-99.99,1.000000,,2013-02-20 14:42:00,
2013-02-20 07:52:00,28.0,26.0,-100.00,SW,225,2.0,6.0,91,-99.99,,,-99.99,1.000000,,2013-02-20 14:52:00,
2013-02-20 08:01:00,28.0,26.0,-100.00,SW,225,2.0,6.0,91,-99.99,,,-99.99,1.000000,,2013-02-20 15:01:00,
2013-02-20 08:11:00,28.0,26.0,-100.00,SW,225,2.0,6.0,91,-99.99,,,-99.99,1.000000,,2013-02-20 15:11:00,
2013-02-20 08:42:00,28.0,26.0,-100.00,WSW,238,2.0,7.0,91,0.00,,,0.11,1.000000,,2013-02-20 15:42:00,
2013-02-20 08:52:00,28.0,26.0,-100.00,WSW,238,2.0,7.0,91,0.00,,,0.11,1.000000,,2013-02-20 15:52:00,
2013-02-20 09:01:00,28.0,26.0,-100.00,WSW,238,2.0,7.0,91,0.00,,,0.11,1.000000,,2013-02-20 16:01:00,
2013-02-20 09:11:00,28.0,26.0,-100.00,WSW,238,2.0,7.0,91,0.00,,,0.11,1.000000,,2013-02-20 16:11:00,
2013-02-20 09:42:00,28.0,25.0,-100.00,SSE,168,1.0,6.0,90,0.00,,,0.11,4.000000,,2013-02-20 16:42:00,
2013-02-20 09:52:00,28.0,25.0,-100.00,SSE,168,1.0,6.0,90,0.00,,,0.11,4.000000,,2013-02-20 16:52:00,
2013-02-20 10:01:00,28.0,25.0,-100.00,SSE,168,1.0,6.0,90,0.00,,,0.11,4.000000,,2013-02-20 17:01:00,
2013-02-20 10:11:00,28.0,25.0,-100.00,SSE,168,1.0,6.0,90,0.00,,,0.11,4.000000,,2013-02-20 17:11:00,
2013-02-20 10:42:00,29.0,25.0,-100.00,SW,217,2.0,5.0,86,0.00,,,0.11,12.000000,,2013-02-20 17:42:00,
2013-02-20 10:52:00,29.0,25.0,-100.00,SW,217,2.0,5.0,86,0.00,,,0.11,12.000000,,2013-02-20 17:52:00,
2013-02-20 11:02:00,29.0,25.0,-100.00,SW,217,2.0,5.0,86,0.00,,,0.11,12.000000,,2013-02-20 18:02:00,
2013-02-20 11:11:00,29.0,25.0,-100.00,SW,217,2.0,5.0,86,0.00,,,0.11,12.000000,,2013-02-20 18:11:00,
2013-02-20 11:32:00,30.0,25.0,-100.00,WSW,238,3.0,8.0,83,0.00,,,0.11,28.000000,,2013-02-20 18:32:00,
2013-02-20 11:42:00,30.0,25.0,-100.00,WSW,238,3.0,8.0,83,0.00,,,0.11,28.000000,,2013-02-20 18:42:00,
2013-02-20 11:52:00,30.0,25.0,-100.00,WSW,238,3.0,8.0,83,0.00,,,0.11,28.000000,,2013-02-20 18:52:00,
2013-02-20 12:01:00,30.0,25.0,-100.00,WSW,238,3.0,8.0,83,0.00,,,0.11,28.000000,,2013-02-20 19:01:00,
2013-02-20 12:11:00,30.0,25.0,-100.00,WSW,238,3.0,8.0,83,0.00,,,0.11,28.000000,,2013-02-20 19:11:00,
2013-02-20 12:32:00,31.0,26.0,-100.00,West,275,2.0,7.0,80,0.00,,,0.11,27.000000,,2013-02-20 19:32:00,
2013-02-20 12:42:00,31.0,26.0,-100.00,West,275,2.0,7.0,80,0.00,,,0.11,27.000000,,2013-02-20 19:42:00,
2013-02-20 12:52:00,31.0,26.0,-100.00,West,275,2.0,7.0,80,0.00,,,0.11,27.000000,,2013-02-20 19:52:00,
2013-02-20 13:01:00,31.0,26.0,-100.00,West,275,2.0,7.0,80,0.00,,,0.11,27.000000,,2013-02-20 20:01:00,
2013-02-20 13:11:00,31.0,26.0,-100.00,West,275,2.0,7.0,80,0.00,,,0.11,27.000000,,2013-02-20 20:11:00,
2013-02-20 13:41:00,34.0,26.0,-100.00,North,8,2.0,5.0,73,0.00,,,0.11,39.000000,,2013-02-20 20:41:00,
2013-02-20 13:51:00,34.0,26.0,-100.00,North,8,2.0,5.0,73,0.00,,,0.11,39.000000,,2013-02-20 20:51:00,
2013-02-20 14:01:00,34.0,26.0,-100.00,North,8,2.0,5.0,73,0.00,,,0.11,39.000000,,2013-02-20 21:01:00,
2013-02-20 14:11:00,34.0,26.0,-100.00,North,8,2.0,5.0,73,0.00,,,0.11,39.000000,,2013-02-20 21:11:00,
2013-02-20 14:42:00,35.0,26.0,-100.00,West,276,2.0,5.0,70,0.00,,,0.11,178.000000,,2013-02-20 21:42:00,
2013-02-20 14:52:00,35.0,26.0,-100.00,West,276,2.0,5.0,70,0.00,,,0.11,178.000000,,2013-02-20 21:52:00,
2013-02-20 15:01:00,35.0,26.0,-100.00,West,276,2.0,5.0,70,0.00,,,0.11,178.000000,,2013-02-20 22:01:00,
2013-02-20 15:11:00,35.0,26.0,-100.00,West,276,2.0,5.0,70,0.00,,,0.11,178.000000,,2013-02-20 22:11:00,
2013-02-20 15:43:00,34.0,24.0,-100.00,SSW,196,5.0,9.0,66,0.00,,,0.11,239.000000,,2013-02-20 22:43:00,
2013-02-20 15:51:00,34.0,24.0,-100.00,SSW,196,5.0,9.0,66,0.00,,,0.11,239.000000,,2013-02-20 22:51:00,
2013-02-20 16:01:00,34.0,24.0,-100.00,SSW,196,5.0,9.0,66,0.00,,,0.11,239.000000,,2013-02-20 23:01:00,
2013-02-20 16:12:00,34.0,24.0,-100.00,SSW,196,5.0,9.0,66,0.00,,,0.11,239.000000,,2013-02-20 23:12:00,
2013-02-20 16:32:00,32.0,25.0,-100.00,SW,230,3.0,9.0,74,0.00,,,0.11,148.000000,,2013-02-20 23:32:00,
2013-02-20 16:42:00,32.0,25.0,-100.00,SW,230,3.0,9.0,74,0.00,,,0.11,148.000000,,2013-02-20 23:42:00,
2013-02-20 16:52:00,32.0,25.0,-100.00,SW,230,3.0,9.0,74,0.00,,,0.11,148.000000,,2013-02-20 23:52:00,
2013-02-20 17:02:00,32.0,25.0,-100.00,SW,230,3.0,9.0,74,0.00,,,0.11,148.000000,,2013-02-21 00:02:00,
2013-02-20 17:11:00,32.0,25.0,-100.00,SW,230,3.0,9.0,74,0.00,,,0.11,148.000000,,2013-02-21 00:11:00,
2013-02-20 17:32:00,32.0,24.0,-100.00,South,172,3.0,7.0,71,0.00,,,0.11,136.000000,,2013-02-21 00:32:00,
2013-02-20 17:42:00,32.0,24.0,-100.00,South,172,3.0,7.0,71,0.00,,,0.11,136.000000,,2013-02-21 00:42:00,
2013-02-20 17:52:00,32.0,24.0,-100.00,South,172,3.0,7.0,71,0.00,,,0.11,136.000000,,2013-02-21 00:52:00,
2013-02-20 18:01:00,32.0,24.0,-100.00,South,172,3.0,7.0,71,0.00,,,0.11,136.000000,,2013-02-21 01:01:00,
2013-02-20 18:11:00,32.0,24.0,-100.00,South,172,3.0,7.0,71,0.00,,,0.11,136.000000,,2013-02-21 01:11:00,
2013-02-20 18:32:00,31.0,23.0,-100.00,South,188,3.0,9.0,71,0.00,,,-99.99,103.000000,,2013-02-21 01:32:00,
2013-02-20 18:42:00,31.0,23.0,-100.00,South,188,3.0,9.0,71,0.00,,,-99.99,103.000000,,2013-02-21 01:42:00,
2013-02-20 18:52:00,31.0,23.0,-100.00,South,188,3.0,9.0,71,0.00,,,-99.99,103.000000,,2013-02-21 01:52:00,
2013-02-20 19:01:00,31.0,23.0,-100.00,South,188,3.0,9.0,71,0.00,,,-99.99,103.000000,,2013-02-21 02:01:00,
2013-02-20 19:11:00,31.0,23.0,-100.00,South,188,3.0,9.0,71,0.00,,,-99.99,103.000000,,2013-02-21 02:11:00,
2013-02-20 19:32:00,28.0,24.0,-100.00,East,101,1.0,5.0,85,0.00,,,0.11,36.000000,,2013-02-21 02:32:00,
2013-02-20 19:42:00,28.0,24.0,-100.00,East,101,1.0,5.0,85,0.00,,,0.11,36.000000,,2013-02-21 02:42:00,
2013-02-20 19:52:00,28.0,24.0,-100.00,East,101,1.0,5.0,85,0.00,,,0.11,36.000000,,2013-02-21 02:52:00,
2013-02-20 20:01:00,28.0,24.0,-100.00,East,101,1.0,5.0,85,0.00,,,0.11,36.000000,,2013-02-21 03:01:00,
2013-02-20 20:11:00,28.0,24.0,-100.00,East,101,1.0,5.0,85,0.00,,,0.11,36.000000,,2013-02-21 03:11:00,
2013-02-20 20:42:00,24.0,20.0,-100.00,SE,137,2.0,3.0,85,0.00,,,0.11,1.000000,,2013-02-21 03:42:00,
2013-02-20 20:52:00,24.0,20.0,-100.00,SE,137,2.0,3.0,85,0.00,,,0.11,1.000000,,2013-02-21 03:52:00,
2013-02-20 21:01:00,24.0,20.0,-100.00,SE,137,2.0,3.0,85,0.00,,,0.11,1.000000,,2013-02-21 04:01:00,
2013-02-20 21:11:00,24.0,20.0,-100.00,SE,137,2.0,3.0,85,0.00,,,0.11,1.000000,,2013-02-21 04:11:00,
2013-02-20 21:32:00,24.0,21.0,-100.00,SE,124,1.0,2.0,87,0.00,,,0.11,1.000000,,2013-02-21 04:32:00,
2013-02-20 21:42:00,24.0,21.0,-100.00,SE,124,1.0,2.0,87,0.00,,,0.11,1.000000,,2013-02-21 04:42:00,
2013-02-20 21:52:00,24.0,21.0,-100.00,SE,124,1.0,2.0,87,0.00,,,0.11,1.000000,,2013-02-21 04:52:00,
2013-02-20 22:02:00,24.0,21.0,-100.00,SE,124,1.0,2.0,87,0.00,,,0.11,1.000000,,2013-02-21 05:02:00,
2013-02-20 22:12:00,24.0,21.0,-100.00,SE,124,1.0,2.0,87,0.00,,,0.11,1.000000,,2013-02-21 05:12:00,
2013-02-20 22:37:00,24.0,21.0,-100.00,East,82,0.0,3.0,87,0.00,,,0.11,1.000000,,2013-02-21 05:37:00,
2013-02-20 22:46:00,24.0,21.0,-100.00,East,82,0.0,3.0,87,0.00,,,0.11,1.000000,,2013-02-21 05:46:00,
2013-02-20 22:58:00,24.0,21.0,-100.00,East,82,0.0,3.0,87,0.00,,,0.11,1.000000,,2013-02-21 05:58:00,
2013-02-20 23:11:00,24.0,21.0,-100.00,East,82,0.0,3.0,87,0.00,,,0.11,1.000000,,2013-02-21 06:11:00,
2013-02-20 23:31:00,21.0,17.0,-100.00,ESE,119,2.0,3.0,86,0.00,,,0.11,1.000000,,2013-02-21 06:31:00,
2013-02-20 23:41:00,21.0,17.0,-100.00,ESE,119,2.0,3.0,86,0.00,,,0.11,1.000000,,2013-02-21 06:41:00,
2013-02-20 23:51:00,21.0,17.0,-100.00,ESE,119,2.0,3.0,86,0.00,,,0.11,1.000000,,2013-02-21 06:51:00,